Time;durP1;ratioP1;P1;durP2;ratioP2;P2;SDS_P1;SDS_P2;PMS_P1;PMS_P2;Temp;Humidity;BMP_temperature;BMP_pressure;BME280_temperature;BME280_humidity;BME280_pressure;Samples;Min_cycle;Max_cycle;Signal;HPM_P1;HPM_P2
2023/08/05 00:00:42;;;;;;;2.40;1.77;;;;;;;;;;10071910;28;20441;-76
2023/08/05 00:05:34;;;;;;;3.00;1.88;;;;;;;;;;10040832;28;20037;-76
2023/08/05 00:10:26;;;;;;;6.65;2.50;;;;;;;;;;10068552;28;20037;-76
2023/08/05 00:15:18;;;;;;;3.75;2.45;;;;;;;;;;10068986;28;20099;-76
2023/08/05 00:20:11;;;;;;;1.73;1.63;;;;;;;;;;10062186;28;20053;-74
2023/08/05 00:25:04;;;;;;;2.80;1.95;;;;;;;;;;10068126;28;20045;-74
2023/08/05 00:29:55;;;;;;;2.75;2.35;;;;;;;;;;10067818;28;20060;-76
2023/08/05 00:34:47;;;;;;;2.88;1.92;;;;;;;;;;10050889;28;20136;-75
2023/08/05 00:39:39;;;;;;;2.45;2.00;;;;;;;;;;10067077;28;20041;-76
2023/08/05 00:44:31;;;;;;;5.03;2.47;;;;;;;;;;10025793;28;20145;-76
2023/08/05 00:49:23;;;;;;;1.98;1.83;;;;;;;;;;10036517;28;20088;-76
2023/08/05 00:54:16;;;;;;;4.20;1.98;;;;;;;;;;10057819;28;20057;-76
2023/08/05 00:59:09;;;;;;;2.70;2.00;;;;;;;;;;10057070;28;20380;-76
2023/08/05 01:04:01;;;;;;;3.05;2.40;;;;;;;;;;10023013;28;20048;-76
2023/08/05 01:08:54;;;;;;;2.17;1.98;;;;;;;;;;10022906;28;20376;-75
2023/08/05 01:13:46;;;;;;;8.57;2.50;;;;;;;;;;10063094;28;20438;-73
2023/08/05 01:18:40;;;;;;;3.22;2.38;;;;;;;;;;10046724;28;20037;-74
2023/08/05 01:23:56;;;;;;;10.07;3.33;;;;;;;;;;10041514;28;20523;-74
2023/08/05 01:28:48;;;;;;;7.13;3.33;;;;;;;;;;10055878;28;20069;-72
2023/08/05 01:33:40;;;;;;;15.13;3.85;;;;;;;;;;10056273;28;20052;-72
2023/08/05 01:38:32;;;;;;;6.72;3.58;;;;;;;;;;10060816;28;20045;-69
2023/08/05 01:43:24;;;;;;;6.95;3.40;;;;;;;;;;10050575;28;20435;-70
2023/08/05 01:48:16;;;;;;;13.52;3.63;;;;;;;;;;10022961;28;20129;-71
2023/08/05 01:53:08;;;;;;;11.25;5.63;;;;;;;;;;10023410;28;20054;-72
2023/08/05 01:58:00;;;;;;;10.98;5.03;;;;;;;;;;10031308;28;20041;-75
2023/08/05 02:02:52;;;;;;;0.38;0.38;;;;;;;;;;10056185;28;20076;-75
2023/08/05 02:07:44;;;;;;;0.40;0.40;;;;;;;;;;10027185;28;20124;-73
2023/08/05 02:12:36;;;;;;;0.35;0.35;;;;;;;;;;10024900;28;20622;-72
2023/08/05 02:17:28;;;;;;;0.95;0.75;;;;;;;;;;10029499;28;20408;-72
2023/08/05 02:22:20;;;;;;;0.40;0.40;;;;;;;;;;10036477;28;20546;-73
2023/08/05 02:27:12;;;;;;;0.40;0.40;;;;;;;;;;10046685;28;20084;-73
2023/08/05 02:32:04;;;;;;;0.47;0.47;;;;;;;;;;10030535;28;20046;-71
2023/08/05 02:36:56;;;;;;;0.40;0.40;;;;;;;;;;10030601;28;20045;-74
2023/08/05 02:41:48;;;;;;;0.50;0.50;;;;;;;;;;10029782;28;20041;-72
2023/08/05 02:46:40;;;;;;;0.40;0.40;;;;;;;;;;10029253;28;20050;-72
2023/08/05 02:51:32;;;;;;;0.40;0.40;;;;;;;;;;10029981;28;20050;-72
2023/08/05 02:56:24;;;;;;;0.38;0.38;;;;;;;;;;10031099;28;20038;-73
2023/08/05 03:01:16;;;;;;;0.50;0.50;;;;;;;;;;10028417;28;20056;-73
2023/08/05 03:06:08;;;;;;;0.32;0.32;;;;;;;;;;10032451;28;20041;-73
2023/08/05 03:11:01;;;;;;;0.40;0.40;;;;;;;;;;10068927;28;20103;-73
2023/08/05 03:15:55;;;;;;;0.40;0.40;;;;;;;;;;10040557;28;20050;-73
2023/08/05 03:20:48;;;;;;;0.40;0.40;;;;;;;;;;10029656;28;20570;-74
2023/08/05 03:25:42;;;;;;;0.40;0.40;;;;;;;;;;10028747;28;20057;-74
2023/08/05 03:30:34;;;;;;;0.40;0.40;;;;;;;;;;10029253;28;20120;-72
2023/08/05 03:35:27;;;;;;;0.40;0.40;;;;;;;;;;10029876;28;20156;-71
2023/08/05 03:40:20;;;;;;;0.40;0.40;;;;;;;;;;10026758;28;20073;-72
2023/08/05 03:45:13;;;;;;;0.40;0.40;;;;;;;;;;10060533;28;20045;-70
2023/08/05 03:50:08;;;;;;;0.55;0.55;;;;;;;;;;10030224;28;20050;-72
2023/08/05 03:55:00;;;;;;;0.40;0.40;;;;;;;;;;10027553;28;20050;-72
2023/08/05 03:59:53;;;;;;;0.40;0.40;;;;;;;;;;10027255;28;20384;-72
2023/08/05 04:04:45;;;;;;;0.43;0.43;;;;;;;;;;10027671;28;20069;-72
2023/08/05 04:09:37;;;;;;;0.40;0.40;;;;;;;;;;10027218;28;20053;-73
2023/08/05 04:14:30;;;;;;;0.40;0.40;;;;;;;;;;10025881;28;20120;-73
2023/08/05 04:19:24;;;;;;;0.40;0.40;;;;;;;;;;10026022;28;20041;-73
2023/08/05 04:24:18;;;;;;;0.40;0.40;;;;;;;;;;10025838;28;20042;-73
2023/08/05 04:29:10;;;;;;;0.40;0.40;;;;;;;;;;10060800;28;20046;-72
2023/08/05 04:34:02;;;;;;;0.40;0.40;;;;;;;;;;10031375;28;20100;-73
2023/08/05 04:38:54;;;;;;;0.40;0.40;;;;;;;;;;10025932;28;20049;-73
2023/08/05 04:43:46;;;;;;;0.40;0.40;;;;;;;;;;10027076;28;20132;-72
2023/08/05 04:48:38;;;;;;;0.40;0.40;;;;;;;;;;10027089;28;20387;-72
2023/08/05 04:53:30;;;;;;;0.50;0.50;;;;;;;;;;10027146;28;20472;-72
2023/08/05 04:58:21;;;;;;;0.40;0.40;;;;;;;;;;10025833;28;20050;-71
2023/08/05 05:03:13;;;;;;;0.40;0.40;;;;;;;;;;10050705;28;20423;-71
2023/08/05 05:08:05;;;;;;;0.57;0.57;;;;;;;;;;10041855;28;20050;-70
2023/08/05 05:12:58;;;;;;;0.68;0.68;;;;;;;;;;10024444;28;20050;-71
2023/08/05 05:17:50;;;;;;;0.40;0.40;;;;;;;;;;10024869;28;20376;-69
2023/08/05 05:22:42;;;;;;;0.40;0.40;;;;;;;;;;10024685;28;20469;-72
2023/08/05 05:27:34;;;;;;;0.40;0.40;;;;;;;;;;10024539;28;20049;-72
2023/08/05 05:32:26;;;;;;;0.40;0.40;;;;;;;;;;10024983;28;20058;-71
2023/08/05 05:37:18;;;;;;;0.40;0.40;;;;;;;;;;10024907;28;20478;-72
2023/08/05 05:42:11;;;;;;;0.43;0.43;;;;;;;;;;10023641;28;20046;-71
2023/08/05 05:47:03;;;;;;;0.40;0.40;;;;;;;;;;10024270;28;20041;-71
2023/08/05 05:51:54;;;;;;;0.40;0.40;;;;;;;;;;10025767;28;20133;-72
2023/08/05 05:56:46;;;;;;;0.40;0.40;;;;;;;;;;10024966;28;20052;-71
2023/08/05 06:01:38;;;;;;;0.40;0.40;;;;;;;;;;10024108;28;20492;-71
2023/08/05 06:06:30;;;;;;;0.40;0.40;;;;;;;;;;10025294;28;20049;-72
2023/08/05 06:11:22;;;;;;;0.40;0.40;;;;;;;;;;10023877;28;20069;-72
2023/08/05 06:16:14;;;;;;;0.40;0.40;;;;;;;;;;10023393;28;20046;-72
2023/08/05 06:21:06;;;;;;;0.50;0.50;;;;;;;;;;10040623;28;20050;-71
2023/08/05 06:25:58;;;;;;;0.63;0.63;;;;;;;;;;10023135;28;20046;-71
2023/08/05 06:30:50;;;;;;;0.40;0.40;;;;;;;;;;10024176;28;20061;-72
2023/08/05 06:35:41;;;;;;;0.45;0.45;;;;;;;;;;10024472;28;20390;-72
2023/08/05 06:40:33;;;;;;;0.40;0.40;;;;;;;;;;10024673;28;20540;-71
2023/08/05 06:45:26;;;;;;;0.40;0.40;;;;;;;;;;10023411;28;20038;-72
2023/08/05 06:50:18;;;;;;;0.40;0.40;;;;;;;;;;10022465;28;20050;-72
2023/08/05 06:55:09;;;;;;;0.40;0.40;;;;;;;;;;10023967;28;20084;-72
2023/08/05 07:00:02;;;;;;;0.40;0.40;;;;;;;;;;10027690;28;20468;-72
2023/08/05 07:04:54;;;;;;;0.40;0.40;;;;;;;;;;10030608;28;20049;-72
2023/08/05 07:09:46;;;;;;;0.40;0.40;;;;;;;;;;10052887;28;20039;-71
2023/08/05 07:14:39;;;;;;;0.40;0.40;;;;;;;;;;10063106;28;20464;-72
2023/08/05 07:19:30;;;;;;;0.47;0.47;;;;;;;;;;10031055;28;20383;-72
2023/08/05 07:24:22;;;;;;;0.40;0.40;;;;;;;;;;10030955;28;20069;-72
2023/08/05 07:29:14;;;;;;;0.40;0.40;;;;;;;;;;10048364;28;20033;-72
2023/08/05 07:34:07;;;;;;;0.50;0.50;;;;;;;;;;10057186;28;20133;-72
2023/08/05 07:39:03;;;;;;;0.40;0.40;;;;;;;;;;10033233;28;20048;-72
2023/08/05 07:43:58;;;;;;;0.40;0.40;;;;;;;;;;10040664;28;20050;-72
2023/08/05 07:48:52;;;;;;;0.50;0.50;;;;;;;;;;10061143;28;20132;-72
2023/08/05 07:53:44;;;;;;;2.08;1.13;;;;;;;;;;10062514;28;20587;-71
2023/08/05 07:58:39;;;;;;;0.45;0.45;;;;;;;;;;10059789;28;20037;-72
2023/08/05 08:03:31;;;;;;;0.40;0.40;;;;;;;;;;10050560;28;20042;-73
2023/08/05 08:08:23;;;;;;;0.70;0.70;;;;;;;;;;10065789;28;20049;-71
2023/08/05 08:13:14;;;;;;;0.55;0.47;;;;;;;;;;10065761;28;20475;-72
2023/08/05 08:18:06;;;;;;;0.30;0.30;;;;;;;;;;10064792;28;20042;-73
2023/08/05 08:22:58;;;;;;;0.30;0.30;;;;;;;;;;10068265;28;20041;-73
2023/08/05 08:27:50;;;;;;;0.40;0.40;;;;;;;;;;10048127;28;20827;-73
2023/08/05 08:32:42;;;;;;;0.38;0.38;;;;;;;;;;10044110;28;20099;-73
2023/08/05 08:37:34;;;;;;;0.40;0.40;;;;;;;;;;10070239;28;20163;-73
2023/08/05 08:42:26;;;;;;;0.40;0.40;;;;;;;;;;10053567;28;20050;-72
2023/08/05 08:47:19;;;;;;;0.30;0.30;;;;;;;;;;10057897;28;20054;-73
2023/08/05 08:52:13;;;;;;;0.30;0.30;;;;;;;;;;10049194;28;20115;-73
2023/08/05 08:57:06;;;;;;;0.70;0.70;;;;;;;;;;10041725;28;20208;-71
2023/08/05 09:01:58;;;;;;;0.40;0.40;;;;;;;;;;10044531;28;20117;-73
2023/08/05 09:06:50;;;;;;;0.45;0.45;;;;;;;;;;10064619;28;20089;-71
2023/08/05 09:11:42;;;;;;;0.40;0.40;;;;;;;;;;10066791;28;20419;-71
2023/08/05 09:16:33;;;;;;;0.50;0.50;;;;;;;;;;10066110;28;20049;-71
2023/08/05 09:21:26;;;;;;;0.30;0.30;;;;;;;;;;10065050;28;20391;-72
2023/08/05 09:26:29;;;;;;;0.40;0.40;;;;;;;;;;10063962;28;20052;-71
2023/08/05 09:31:21;;;;;;;0.40;0.40;;;;;;;;;;10050434;28;20125;-64
2023/08/05 09:36:14;;;;;;;0.30;0.30;;;;;;;;;;10062901;28;20124;-64
2023/08/05 09:41:07;;;;;;;0.40;0.40;;;;;;;;;;10053405;28;20045;-63
2023/08/05 09:46:02;;;;;;;0.40;0.40;;;;;;;;;;10047175;28;20483;-64
2023/08/05 09:50:54;;;;;;;0.40;0.40;;;;;;;;;;10048293;28;20058;-63
2023/08/05 09:55:46;;;;;;;0.40;0.40;;;;;;;;;;10056866;28;20088;-63
2023/08/05 10:00:41;;;;;;;0.40;0.40;;;;;;;;;;10063860;28;20046;-63
2023/08/05 10:05:34;;;;;;;0.38;0.38;;;;;;;;;;10059278;28;20349;-62
2023/08/05 10:10:29;;;;;;;0.30;0.30;;;;;;;;;;10032806;28;20613;-63
2023/08/05 10:15:25;;;;;;;0.93;0.93;;;;;;;;;;10048410;28;20045;-62
2023/08/05 10:20:17;;;;;;;0.30;0.30;;;;;;;;;;10050076;28;20037;-63
2023/08/05 10:25:08;;;;;;;0.30;0.30;;;;;;;;;;10063251;28;20041;-62
2023/08/05 10:30:11;;;;;;;0.30;0.30;;;;;;;;;;10043321;28;20077;-62
2023/08/05 10:35:28;;;;;;;0.30;0.30;;;;;;;;;;10067376;28;20313;-62
2023/08/05 10:40:38;;;;;;;0.30;0.30;;;;;;;;;;10070310;28;20055;-62
2023/08/05 10:45:32;;;;;;;0.30;0.30;;;;;;;;;;10071662;28;20048;-63
2023/08/05 10:50:33;;;;;;;0.30;0.30;;;;;;;;;;10069726;28;20050;-62
2023/08/05 10:55:26;;;;;;;0.30;0.30;;;;;;;;;;10063187;28;20488;-61
2023/08/05 11:00:20;;;;;;;0.30;0.30;;;;;;;;;;10047743;28;20076;-62
2023/08/05 11:05:12;;;;;;;0.30;0.30;;;;;;;;;;10054558;28;20084;-62
2023/08/05 11:10:05;;;;;;;0.30;0.30;;;;;;;;;;10070547;28;20077;-64
2023/08/05 11:14:59;;;;;;;0.30;0.30;;;;;;;;;;10045308;28;20061;-62
2023/08/05 11:19:55;;;;;;;0.30;0.30;;;;;;;;;;10049120;28;20046;-62
2023/08/05 11:24:47;;;;;;;0.30;0.30;;;;;;;;;;10037678;28;20107;-62
2023/08/05 11:29:39;;;;;;;0.30;0.30;;;;;;;;;;10049990;28;20081;-61
2023/08/05 11:34:50;;;;;;;0.30;0.30;;;;;;;;;;10045618;28;20371;-62
2023/08/05 11:39:42;;;;;;;0.30;0.30;;;;;;;;;;10069942;28;20099;-63
2023/08/05 11:44:34;;;;;;;0.30;0.30;;;;;;;;;;10048286;28;20042;-63
2023/08/05 11:49:26;;;;;;;0.30;0.30;;;;;;;;;;10029040;28;20479;-62
2023/08/05 11:54:29;;;;;;;0.82;0.82;;;;;;;;;;10027260;28;20062;-62
2023/08/05 11:59:44;;;;;;;0.30;0.30;;;;;;;;;;10033903;28;20068;-63
2023/08/05 12:04:43;;;;;;;0.30;0.30;;;;;;;;;;10044340;28;20052;-63
2023/08/05 12:09:35;;;;;;;0.30;0.30;;;;;;;;;;10041971;28;20115;-63
2023/08/05 12:14:27;;;;;;;0.20;0.20;;;;;;;;;;10044907;28;20049;-63
2023/08/05 12:19:19;;;;;;;0.30;0.30;;;;;;;;;;10038580;28;20084;-62
2023/08/05 12:24:11;;;;;;;0.30;0.30;;;;;;;;;;10033290;28;20083;-61
2023/08/05 12:29:03;;;;;;;0.30;0.30;;;;;;;;;;10036755;28;20520;-71
2023/08/05 12:33:55;;;;;;;0.40;0.40;;;;;;;;;;10047013;28;20041;-72
2023/08/05 12:38:52;;;;;;;0.30;0.30;;;;;;;;;;10071404;28;20037;-69
2023/08/05 12:43:43;;;;;;;0.30;0.30;;;;;;;;;;10069319;28;20041;-61
2023/08/05 12:48:35;;;;;;;0.30;0.30;;;;;;;;;;10041896;28;20116;-62
2023/08/05 12:53:27;;;;;;;0.30;0.30;;;;;;;;;;10065087;28;20049;-63
2023/08/05 12:58:19;;;;;;;0.30;0.30;;;;;;;;;;10060876;28;20136;-62
2023/08/05 13:03:11;;;;;;;0.30;0.30;;;;;;;;;;10044728;28;20046;-61
2023/08/05 13:08:03;;;;;;;0.50;0.50;;;;;;;;;;10061997;28;20060;-62
2023/08/05 13:12:55;;;;;;;0.30;0.30;;;;;;;;;;10066574;28;20583;-62
2023/08/05 13:17:47;;;;;;;0.20;0.20;;;;;;;;;;10065962;28;20080;-62
2023/08/05 13:22:39;;;;;;;0.20;0.20;;;;;;;;;;10066206;28;20171;-62
2023/08/05 13:27:32;;;;;;;0.20;0.20;;;;;;;;;;10065583;28;20049;-62
2023/08/05 13:32:24;;;;;;;0.20;0.20;;;;;;;;;;10066586;28;20078;-63
2023/08/05 13:37:16;;;;;;;0.20;0.20;;;;;;;;;;10067372;28;20049;-63
2023/08/05 13:42:08;;;;;;;0.20;0.20;;;;;;;;;;10065153;28;20034;-63
2023/08/05 13:47:00;;;;;;;0.20;0.20;;;;;;;;;;10070016;28;20088;-64
2023/08/05 13:51:51;;;;;;;0.20;0.20;;;;;;;;;;10049139;28;20499;-64
2023/08/05 13:56:44;;;;;;;0.20;0.20;;;;;;;;;;10054102;28;20058;-65
2023/08/05 14:01:36;;;;;;;0.20;0.20;;;;;;;;;;10065419;28;20046;-64
2023/08/05 14:06:28;;;;;;;0.20;0.20;;;;;;;;;;10064741;28;20057;-64
2023/08/05 14:11:20;;;;;;;0.20;0.20;;;;;;;;;;10074067;28;20103;-63
2023/08/05 14:16:11;;;;;;;0.20;0.20;;;;;;;;;;10073026;28;20088;-61
2023/08/05 14:21:04;;;;;;;0.20;0.20;;;;;;;;;;10072410;28;20430;-64
2023/08/05 14:25:55;;;;;;;0.20;0.20;;;;;;;;;;10063342;28;20046;-63
2023/08/05 14:30:47;;;;;;;0.20;0.20;;;;;;;;;;10035764;28;20053;-64
2023/08/05 14:35:39;;;;;;;0.20;0.20;;;;;;;;;;10066987;28;20132;-65
2023/08/05 14:40:33;;;;;;;0.20;0.20;;;;;;;;;;10039595;28;20100;-64
2023/08/05 14:45:24;;;;;;;0.20;0.20;;;;;;;;;;10031766;28;20070;-64
2023/08/05 14:50:16;;;;;;;0.30;0.30;;;;;;;;;;10043735;28;20072;-65
2023/08/05 14:55:08;;;;;;;0.20;0.20;;;;;;;;;;10037426;28;20084;-64
2023/08/05 15:00:00;;;;;;;0.20;0.20;;;;;;;;;;10058353;28;20156;-65
2023/08/05 15:04:52;;;;;;;0.20;0.20;;;;;;;;;;10055518;28;20046;-64
2023/08/05 15:09:44;;;;;;;0.20;0.20;;;;;;;;;;10051603;28;20052;-70
2023/08/05 15:14:36;;;;;;;0.30;0.30;;;;;;;;;;10064235;28;20049;-72
2023/08/05 15:19:27;;;;;;;0.28;0.28;;;;;;;;;;10040842;28;20042;-70
2023/08/05 15:24:19;;;;;;;0.20;0.20;;;;;;;;;;10064674;28;20451;-70
2023/08/05 15:29:11;;;;;;;0.20;0.20;;;;;;;;;;10056842;28;20076;-70
2023/08/05 15:34:03;;;;;;;0.20;0.20;;;;;;;;;;10053761;28;20439;-71
2023/08/05 15:38:55;;;;;;;0.20;0.20;;;;;;;;;;10045140;28;20478;-67
2023/08/05 15:43:46;;;;;;;0.10;0.10;;;;;;;;;;10062983;28;20072;-71
2023/08/05 15:48:38;;;;;;;0.10;0.10;;;;;;;;;;10066869;28;20463;-69
2023/08/05 15:53:31;;;;;;;0.10;0.10;;;;;;;;;;10058480;28;20495;-70
2023/08/05 15:58:23;;;;;;;0.10;0.10;;;;;;;;;;10060293;28;20033;-70
2023/08/05 16:03:15;;;;;;;0.10;0.10;;;;;;;;;;10062613;28;20037;-70
2023/08/05 16:08:08;;;;;;;0.10;0.10;;;;;;;;;;10036104;28;20124;-70
2023/08/05 16:13:00;;;;;;;0.10;0.10;;;;;;;;;;10049852;28;20100;-71
2023/08/05 16:17:52;;;;;;;0.10;0.10;;;;;;;;;;10050545;28;20073;-70
2023/08/05 16:22:43;;;;;;;0.20;0.20;;;;;;;;;;10037623;28;20047;-71
2023/08/05 16:27:40;;;;;;;0.10;0.10;;;;;;;;;;10063437;28;20103;-69
2023/08/05 16:32:32;;;;;;;0.10;0.10;;;;;;;;;;10051050;28;20042;-69
2023/08/05 16:37:24;;;;;;;0.10;0.10;;;;;;;;;;10022862;28;20041;-71
2023/08/05 16:42:15;;;;;;;0.10;0.10;;;;;;;;;;10023098;28;20081;-68
2023/08/05 16:47:07;;;;;;;0.20;0.20;;;;;;;;;;10021247;28;20114;-69
2023/08/05 16:51:59;;;;;;;0.10;0.10;;;;;;;;;;10050907;28;20077;-71
2023/08/05 16:56:51;;;;;;;0.20;0.20;;;;;;;;;;10033765;28;20037;-69
2023/08/05 17:01:43;;;;;;;0.20;0.20;;;;;;;;;;10042763;28;20129;-69
2023/08/05 17:06:35;;;;;;;0.22;0.22;;;;;;;;;;10051036;28;20456;-69
2023/08/05 17:11:26;;;;;;;0.30;0.30;;;;;;;;;;10041918;28;20041;-69
2023/08/05 17:16:18;;;;;;;0.20;0.20;;;;;;;;;;10031968;28;20716;-69
2023/08/05 17:21:10;;;;;;;0.57;0.57;;;;;;;;;;10060509;28;20101;-71
2023/08/05 17:26:02;;;;;;;0.20;0.20;;;;;;;;;;10059919;28;20112;-70
2023/08/05 17:30:54;;;;;;;0.20;0.20;;;;;;;;;;10063137;28;20049;-71
2023/08/05 17:35:51;;;;;;;0.20;0.20;;;;;;;;;;10060445;28;20053;-70
2023/08/05 17:40:43;;;;;;;0.20;0.20;;;;;;;;;;10064471;28;20053;-70
2023/08/05 17:45:35;;;;;;;0.20;0.20;;;;;;;;;;10050747;28;20081;-69
2023/08/05 17:50:28;;;;;;;0.20;0.20;;;;;;;;;;10023338;28;20050;-70
2023/08/05 17:55:24;;;;;;;0.20;0.20;;;;;;;;;;10037789;28;20145;-69
2023/08/05 18:00:16;;;;;;;0.20;0.20;;;;;;;;;;10033113;28;20137;-67
2023/08/05 18:05:08;;;;;;;0.20;0.20;;;;;;;;;;10058204;28;20091;-69
2023/08/05 18:10:01;;;;;;;0.20;0.20;;;;;;;;;;10027319;28;20046;-68
2023/08/05 18:14:53;;;;;;;0.32;0.32;;;;;;;;;;10022581;28;20380;-69
2023/08/05 18:19:44;;;;;;;0.20;0.20;;;;;;;;;;10028266;28;20046;-68
2023/08/05 18:24:36;;;;;;;0.22;0.22;;;;;;;;;;10059844;28;20099;-70
2023/08/05 18:29:28;;;;;;;0.20;0.20;;;;;;;;;;10052948;28;20048;-69
2023/08/05 18:34:20;;;;;;;0.20;0.20;;;;;;;;;;10048820;28;20514;-69
2023/08/05 18:39:12;;;;;;;0.20;0.20;;;;;;;;;;10037902;28;20096;-68
2023/08/05 18:44:04;;;;;;;0.30;0.30;;;;;;;;;;10022604;28;20080;-68
2023/08/05 18:48:56;;;;;;;0.20;0.20;;;;;;;;;;10019629;28;20240;-69
2023/08/05 18:53:47;;;;;;;0.20;0.20;;;;;;;;;;10041955;28;20394;-69
2023/08/05 18:58:39;;;;;;;0.30;0.30;;;;;;;;;;10038716;28;20642;-68
2023/08/05 19:03:32;;;;;;;0.20;0.20;;;;;;;;;;10044708;28;20199;-72
2023/08/05 19:08:24;;;;;;;0.30;0.30;;;;;;;;;;10061604;28;20084;-72
2023/08/05 19:13:16;;;;;;;0.30;0.30;;;;;;;;;;10066748;28;20046;-70
2023/08/05 19:18:11;;;;;;;0.30;0.30;;;;;;;;;;10046211;28;20621;-71
2023/08/05 19:23:04;;;;;;;0.30;0.30;;;;;;;;;;10056124;28;20157;-69
2023/08/05 19:27:56;;;;;;;0.30;0.30;;;;;;;;;;10038888;28;20050;-71
2023/08/05 19:32:48;;;;;;;0.30;0.30;;;;;;;;;;10052356;28;20054;-72
2023/08/05 19:37:41;;;;;;;0.30;0.30;;;;;;;;;;10057954;28;20052;-70
2023/08/05 19:42:33;;;;;;;0.50;0.50;;;;;;;;;;10057553;28;20048;-72
2023/08/05 19:47:25;;;;;;;0.30;0.30;;;;;;;;;;10083872;28;20037;-71
2023/08/05 19:52:17;;;;;;;0.30;0.30;;;;;;;;;;10070146;28;20430;-71
2023/08/05 19:57:09;;;;;;;0.30;0.30;;;;;;;;;;10069726;28;20049;-71
2023/08/05 20:02:01;;;;;;;0.30;0.30;;;;;;;;;;10067673;28;20056;-71
2023/08/05 20:06:53;;;;;;;0.30;0.30;;;;;;;;;;10067494;28;20042;-71
2023/08/05 20:11:45;;;;;;;0.30;0.30;;;;;;;;;;10067828;28;20058;-70
2023/08/05 20:16:37;;;;;;;0.30;0.30;;;;;;;;;;10067095;28;20384;-68
2023/08/05 20:21:29;;;;;;;0.40;0.40;;;;;;;;;;10067342;28;20380;-71
2023/08/05 20:26:21;;;;;;;0.40;0.40;;;;;;;;;;10066817;28;20038;-72
2023/08/05 20:31:20;;;;;;;0.40;0.40;;;;;;;;;;10067286;28;20367;-69
2023/08/05 20:36:12;;;;;;;;;;;;;;;;;;10066718;28;20045;-70
2023/08/05 20:41:03;;;;;;;0.30;0.30;;;;;;;;;;10066358;28;19920;-69
2023/08/05 20:45:55;;;;;;;0.40;0.40;;;;;;;;;;10066760;28;20096;-70
2023/08/05 20:50:54;;;;;;;0.40;0.40;;;;;;;;;;10062777;28;20061;-69
2023/08/05 20:55:47;;;;;;;0.63;0.63;;;;;;;;;;10066162;28;20514;-71
2023/08/05 21:00:42;;;;;;;0.40;0.40;;;;;;;;;;10067449;28;20407;-71
2023/08/05 21:05:34;;;;;;;0.40;0.40;;;;;;;;;;10064977;28;20061;-71
2023/08/05 21:10:26;;;;;;;0.75;0.75;;;;;;;;;;10066023;28;20131;-71
2023/08/05 21:15:18;;;;;;;0.40;0.40;;;;;;;;;;10065285;28;20053;-70
2023/08/05 21:20:10;;;;;;;0.40;0.40;;;;;;;;;;10064809;28;20046;-72
2023/08/05 21:25:02;;;;;;;0.40;0.40;;;;;;;;;;10050836;28;20114;-71
2023/08/05 21:29:54;;;;;;;0.40;0.40;;;;;;;;;;10064830;28;20460;-71
2023/08/05 21:34:46;;;;;;;0.38;0.38;;;;;;;;;;10065019;28;20391;-71
2023/08/05 21:39:38;;;;;;;0.32;0.32;;;;;;;;;;10064720;28;20140;-71
2023/08/05 21:44:30;;;;;;;0.40;0.40;;;;;;;;;;10063765;28;20056;-72
2023/08/05 21:49:22;;;;;;;0.40;0.40;;;;;;;;;;10063076;28;20136;-71
2023/08/05 21:54:14;;;;;;;0.40;0.40;;;;;;;;;;10064442;28;20053;-71
2023/08/05 21:59:06;;;;;;;0.40;0.40;;;;;;;;;;10063933;28;20053;-70
2023/08/05 22:03:57;;;;;;;0.40;0.40;;;;;;;;;;10064763;28;20045;-71
2023/08/05 22:08:50;;;;;;;0.40;0.40;;;;;;;;;;10064576;28;20045;-69
2023/08/05 22:13:42;;;;;;;0.40;0.40;;;;;;;;;;10063818;28;20353;-69
2023/08/05 22:18:35;;;;;;;0.40;0.40;;;;;;;;;;10064346;28;20092;-72
2023/08/05 22:23:26;;;;;;;0.40;0.40;;;;;;;;;;10051025;28;20045;-73
2023/08/05 22:28:18;;;;;;;0.40;0.40;;;;;;;;;;10065562;28;20055;-73
2023/08/05 22:33:10;;;;;;;0.40;0.40;;;;;;;;;;10071587;28;20041;-70
2023/08/05 22:38:02;;;;;;;0.40;0.40;;;;;;;;;;10071318;28;20049;-72
2023/08/05 22:42:54;;;;;;;0.40;0.40;;;;;;;;;;10071489;28;20052;-73
2023/08/05 22:47:46;;;;;;;0.30;0.30;;;;;;;;;;10071480;28;20049;-71
2023/08/05 22:52:38;;;;;;;0.40;0.40;;;;;;;;;;10071616;28;20054;-72
2023/08/05 22:57:30;;;;;;;0.30;0.30;;;;;;;;;;10071325;28;20096;-70
2023/08/05 23:02:22;;;;;;;0.40;0.40;;;;;;;;;;10070948;28;20045;-71
2023/08/05 23:07:14;;;;;;;0.40;0.40;;;;;;;;;;10069481;28;20067;-70
2023/08/05 23:12:07;;;;;;;0.30;0.30;;;;;;;;;;10069074;28;20107;-72
2023/08/05 23:16:59;;;;;;;0.40;0.40;;;;;;;;;;10070664;28;20045;-70
2023/08/05 23:21:51;;;;;;;0.40;0.40;;;;;;;;;;10070308;28;20074;-70
2023/08/05 23:26:43;;;;;;;0.40;0.40;;;;;;;;;;10056699;28;20050;-73
2023/08/05 23:31:34;;;;;;;0.40;0.40;;;;;;;;;;10070540;28;20048;-73
2023/08/05 23:36:27;;;;;;;0.40;0.40;;;;;;;;;;10068314;28;20057;-73
2023/08/05 23:41:19;;;;;;;0.40;0.40;;;;;;;;;;10069518;28;20080;-72
2023/08/05 23:46:12;;;;;;;0.40;0.40;;;;;;;;;;10064195;28;20049;-72
2023/08/05 23:51:04;;;;;;;0.40;0.40;;;;;;;;;;10028142;28;20042;-71
2023/08/05 23:55:56;;;;;;;0.40;0.40;;;;;;;;;;10027606;28;20056;-73
